Terminal Aerodrome Forecast
Issued by NWS Buffalo, NY

Current Version | Previous Version | Text Only | Print | Product List | Glossary On
Versions: 1 2 3 4 5 6 7 8 9 10 11 12 13 14 15 16 17 18 19 20 21 22 23 24 25 26 27 28 29 30 31
000
FTUS41 KBUF 031229 AAB
TAFBUF
TAF AMD
KBUF 031229Z 0312/0412 19004KT 4SM BR SCT004
     FM031330 23004KT 6SM HZ SCT006 BKN250
     FM031600 26006KT P6SM SCT040 BKN250
     FM032000 31006KT P6SM FEW040 SCT250
     FM040000 03006KT P6SM SCT250
     FM040400 08005KT P6SM SCT100=

USA.gov is the U.S. government's official web portal to all federal, state and local government web resources and services.